sensor_id;sensor_type;location;lat;lon;timestamp;pressure;altitude;pressure_sealevel;temperature;humidity
22335;BME280;11335;43.848;25.958;2023-06-10T00:01:37;100480.88;;;22.37;100.00
22335;BME280;11335;43.848;25.958;2023-06-10T00:04:23;100480.06;;;22.49;100.00
22335;BME280;11335;43.848;25.958;2023-06-10T00:07:09;100480.13;;;22.23;100.00
22335;BME280;11335;43.848;25.958;2023-06-10T00:09:54;100477.91;;;22.54;100.00
22335;BME280;11335;43.848;25.958;2023-06-10T00:12:40;100483.25;;;22.42;100.00
22335;BME280;11335;43.848;25.958;2023-06-10T00:15:27;100484.13;;;22.55;100.00
22335;BME280;11335;43.848;25.958;2023-06-10T00:18:13;100491.81;;;22.47;100.00
22335;BME280;11335;43.848;25.958;2023-06-10T00:20:59;100484.69;;;22.21;100.00
22335;BME280;11335;43.848;25.958;2023-06-10T00:23:49;100485.19;;;21.88;100.00
22335;BME280;11335;43.848;25.958;2023-06-10T00:26:35;100482.94;;;21.82;100.00
22335;BME280;11335;43.848;25.958;2023-06-10T00:29:21;100483.59;;;21.59;100.00
22335;BME280;11335;43.848;25.958;2023-06-10T00:32:07;100486.81;;;21.38;100.00
22335;BME280;11335;43.848;25.958;2023-06-10T00:34:53;100484.84;;;21.27;100.00
22335;BME280;11335;43.848;25.958;2023-06-10T00:37:38;100474.06;;;21.29;100.00
22335;BME280;11335;43.848;25.958;2023-06-10T00:40:24;100482.72;;;21.32;100.00
22335;BME280;11335;43.848;25.958;2023-06-10T00:43:10;100487.72;;;21.51;100.00
22335;BME280;11335;43.848;25.958;2023-06-10T00:45:56;100500.59;;;21.44;100.00
22335;BME280;11335;43.848;25.958;2023-06-10T00:48:43;100499.81;;;21.42;100.00
22335;BME280;11335;43.848;25.958;2023-06-10T00:51:29;100494.75;;;21.52;100.00
22335;BME280;11335;43.848;25.958;2023-06-10T00:54:15;100491.63;;;21.45;100.00
22335;BME280;11335;43.848;25.958;2023-06-10T00:57:01;100499.38;;;21.62;100.00
22335;BME280;11335;43.848;25.958;2023-06-10T00:59:48;100495.28;;;21.30;100.00
22335;BME280;11335;43.848;25.958;2023-06-10T01:02:35;100486.69;;;21.13;100.00
22335;BME280;11335;43.848;25.958;2023-06-10T01:05:21;100492.31;;;20.66;100.00
22335;BME280;11335;43.848;25.958;2023-06-10T01:11:01;100497.50;;;21.24;100.00
22335;BME280;11335;43.848;25.958;2023-06-10T01:13:50;100491.53;;;21.47;100.00
22335;BME280;11335;43.848;25.958;2023-06-10T01:16:36;100500.84;;;21.27;100.00
22335;BME280;11335;43.848;25.958;2023-06-10T01:19:22;100492.66;;;21.16;100.00
22335;BME280;11335;43.848;25.958;2023-06-10T01:22:09;100499.69;;;21.17;100.00
22335;BME280;11335;43.848;25.958;2023-06-10T01:24:56;100483.47;;;20.80;100.00
22335;BME280;11335;43.848;25.958;2023-06-10T01:27:46;100485.56;;;20.75;100.00
22335;BME280;11335;43.848;25.958;2023-06-10T01:33:47;100481.19;;;20.46;100.00
22335;BME280;11335;43.848;25.958;2023-06-10T01:36:35;100484.41;;;20.79;100.00
22335;BME280;11335;43.848;25.958;2023-06-10T01:39:23;100475.97;;;20.30;100.00
22335;BME280;11335;43.848;25.958;2023-06-10T01:42:11;100473.75;;;20.23;100.00
22335;BME280;11335;43.848;25.958;2023-06-10T01:44:58;100468.34;;;20.52;100.00
22335;BME280;11335;43.848;25.958;2023-06-10T01:47:43;100463.69;;;20.28;100.00
22335;BME280;11335;43.848;25.958;2023-06-10T01:50:29;100469.91;;;20.42;100.00
22335;BME280;11335;43.848;25.958;2023-06-10T01:53:15;100472.16;;;20.76;100.00
22335;BME280;11335;43.848;25.958;2023-06-10T01:56:01;100467.00;;;20.87;100.00
22335;BME280;11335;43.848;25.958;2023-06-10T01:58:47;100469.69;;;20.73;100.00
22335;BME280;11335;43.848;25.958;2023-06-10T02:01:33;100466.91;;;20.89;100.00
22335;BME280;11335;43.848;25.958;2023-06-10T02:04:19;100479.19;;;20.77;100.00
22335;BME280;11335;43.848;25.958;2023-06-10T02:07:05;100467.38;;;20.81;100.00
22335;BME280;11335;43.848;25.958;2023-06-10T02:09:51;100456.28;;;20.89;100.00
22335;BME280;11335;43.848;25.958;2023-06-10T02:12:36;100461.13;;;20.96;100.00
22335;BME280;11335;43.848;25.958;2023-06-10T02:15:22;100465.47;;;21.11;100.00
22335;BME280;11335;43.848;25.958;2023-06-10T02:18:08;100474.72;;;21.06;100.00
22335;BME280;11335;43.848;25.958;2023-06-10T02:20:55;100479.88;;;20.95;100.00
22335;BME280;11335;43.848;25.958;2023-06-10T02:23:40;100492.81;;;21.01;100.00
22335;BME280;11335;43.848;25.958;2023-06-10T02:26:26;100498.97;;;20.87;100.00
22335;BME280;11335;43.848;25.958;2023-06-10T02:29:12;100496.78;;;20.80;100.00
22335;BME280;11335;43.848;25.958;2023-06-10T02:31:58;100505.63;;;20.80;100.00
22335;BME280;11335;43.848;25.958;2023-06-10T02:34:43;100499.75;;;21.03;100.00
22335;BME280;11335;43.848;25.958;2023-06-10T02:37:29;100500.38;;;20.79;100.00
22335;BME280;11335;43.848;25.958;2023-06-10T02:40:15;100499.16;;;20.70;100.00
22335;BME280;11335;43.848;25.958;2023-06-10T02:43:00;100512.56;;;20.55;100.00
22335;BME280;11335;43.848;25.958;2023-06-10T02:45:46;100518.22;;;20.21;100.00
22335;BME280;11335;43.848;25.958;2023-06-10T02:48:40;100518.06;;;20.08;100.00
22335;BME280;11335;43.848;25.958;2023-06-10T02:51:27;100507.22;;;20.27;100.00
22335;BME280;11335;43.848;25.958;2023-06-10T02:54:13;100503.66;;;20.12;100.00
22335;BME280;11335;43.848;25.958;2023-06-10T02:56:58;100516.06;;;20.41;100.00
22335;BME280;11335;43.848;25.958;2023-06-10T02:59:44;100508.47;;;20.35;100.00
22335;BME280;11335;43.848;25.958;2023-06-10T03:02:30;100508.94;;;20.42;100.00
22335;BME280;11335;43.848;25.958;2023-06-10T03:05:17;100522.91;;;20.31;100.00
22335;BME280;11335;43.848;25.958;2023-06-10T03:08:03;100518.06;;;20.08;100.00
22335;BME280;11335;43.848;25.958;2023-06-10T03:10:48;100530.22;;;19.83;100.00
22335;BME280;11335;43.848;25.958;2023-06-10T03:13:34;100517.91;;;19.96;100.00
22335;BME280;11335;43.848;25.958;2023-06-10T03:16:20;100528.66;;;20.10;100.00
22335;BME280;11335;43.848;25.958;2023-06-10T03:19:06;100519.06;;;19.62;100.00
22335;BME280;11335;43.848;25.958;2023-06-10T03:22:28;100520.94;;;19.60;100.00
22335;BME280;11335;43.848;25.958;2023-06-10T03:25:14;100519.75;;;19.95;100.00
22335;BME280;11335;43.848;25.958;2023-06-10T03:28:00;100521.84;;;20.04;100.00
22335;BME280;11335;43.848;25.958;2023-06-10T03:30:46;100520.25;;;19.57;100.00
22335;BME280;11335;43.848;25.958;2023-06-10T03:33:32;100528.88;;;20.21;100.00
22335;BME280;11335;43.848;25.958;2023-06-10T03:36:18;100525.28;;;19.77;100.00
22335;BME280;11335;43.848;25.958;2023-06-10T03:39:04;100537.00;;;19.88;100.00
22335;BME280;11335;43.848;25.958;2023-06-10T03:41:50;100524.41;;;19.76;100.00
22335;BME280;11335;43.848;25.958;2023-06-10T03:44:36;100532.22;;;19.79;100.00
22335;BME280;11335;43.848;25.958;2023-06-10T03:47:23;100530.50;;;19.78;100.00
22335;BME280;11335;43.848;25.958;2023-06-10T03:50:09;100522.44;;;19.80;100.00
22335;BME280;11335;43.848;25.958;2023-06-10T03:52:55;100528.19;;;19.72;100.00
22335;BME280;11335;43.848;25.958;2023-06-10T03:55:41;100526.56;;;20.15;100.00
22335;BME280;11335;43.848;25.958;2023-06-10T03:58:27;100523.16;;;20.13;100.00
22335;BME280;11335;43.848;25.958;2023-06-10T04:01:12;100534.03;;;20.38;100.00
22335;BME280;11335;43.848;25.958;2023-06-10T04:04:03;100534.16;;;20.64;100.00
22335;BME280;11335;43.848;25.958;2023-06-10T04:06:49;100543.41;;;20.15;100.00
22335;BME280;11335;43.848;25.958;2023-06-10T04:09:35;100546.22;;;20.12;100.00
22335;BME280;11335;43.848;25.958;2023-06-10T04:12:21;100541.22;;;20.22;100.00
22335;BME280;11335;43.848;25.958;2023-06-10T04:15:07;100548.47;;;20.91;100.00
22335;BME280;11335;43.848;25.958;2023-06-10T04:17:53;100552.50;;;20.55;100.00
22335;BME280;11335;43.848;25.958;2023-06-10T04:20:39;100556.38;;;20.93;100.00
22335;BME280;11335;43.848;25.958;2023-06-10T04:23:24;100553.53;;;20.66;100.00
22335;BME280;11335;43.848;25.958;2023-06-10T04:26:11;100553.13;;;21.02;100.00
22335;BME280;11335;43.848;25.958;2023-06-10T04:29:01;100551.47;;;21.27;100.00
22335;BME280;11335;43.848;25.958;2023-06-10T04:31:46;100545.09;;;21.16;100.00
22335;BME280;11335;43.848;25.958;2023-06-10T04:34:36;100548.22;;;20.80;100.00
22335;BME280;11335;43.848;25.958;2023-06-10T04:37:22;100541.00;;;21.10;100.00
22335;BME280;11335;43.848;25.958;2023-06-10T04:40:08;100543.78;;;20.81;100.00
22335;BME280;11335;43.848;25.958;2023-06-10T04:42:54;100546.53;;;20.79;100.00
22335;BME280;11335;43.848;25.958;2023-06-10T04:45:40;100545.53;;;21.36;100.00
22335;BME280;11335;43.848;25.958;2023-06-10T04:48:25;100543.41;;;20.15;100.00
22335;BME280;11335;43.848;25.958;2023-06-10T04:51:11;100548.72;;;20.73;100.00
22335;BME280;11335;43.848;25.958;2023-06-10T04:53:58;100548.38;;;21.47;100.00
22335;BME280;11335;43.848;25.958;2023-06-10T04:56:43;100556.06;;;21.52;100.00
22335;BME280;11335;43.848;25.958;2023-06-10T04:59:29;100549.16;;;21.76;100.00
22335;BME280;11335;43.848;25.958;2023-06-10T05:02:15;100547.16;;;21.65;100.00
22335;BME280;11335;43.848;25.958;2023-06-10T05:05:01;100539.44;;;20.94;100.00
22335;BME280;11335;43.848;25.958;2023-06-10T05:07:47;100544.78;;;21.34;100.00
22335;BME280;11335;43.848;25.958;2023-06-10T05:10:32;100544.22;;;21.70;100.00
22335;BME280;11335;43.848;25.958;2023-06-10T05:13:19;100543.59;;;22.05;100.00
22335;BME280;11335;43.848;25.958;2023-06-10T05:16:05;100548.13;;;21.38;100.00
22335;BME280;11335;43.848;25.958;2023-06-10T05:18:52;100549.63;;;21.82;100.00
22335;BME280;11335;43.848;25.958;2023-06-10T05:21:37;100551.31;;;22.10;100.00
22335;BME280;11335;43.848;25.958;2023-06-10T05:24:23;100542.31;;;22.50;100.00
22335;BME280;11335;43.848;25.958;2023-06-10T05:27:09;100539.09;;;22.70;100.00
22335;BME280;11335;43.848;25.958;2023-06-10T05:29:55;100546.81;;;22.10;100.00
22335;BME280;11335;43.848;25.958;2023-06-10T05:32:42;100548.91;;;22.44;100.00
22335;BME280;11335;43.848;25.958;2023-06-10T05:35:27;100545.09;;;22.73;100.00
22335;BME280;11335;43.848;25.958;2023-06-10T05:38:13;100548.75;;;22.72;100.00
22335;BME280;11335;43.848;25.958;2023-06-10T05:40:59;100550.00;;;23.04;100.00
22335;BME280;11335;43.848;25.958;2023-06-10T05:43:44;100557.16;;;22.91;100.00
22335;BME280;11335;43.848;25.958;2023-06-10T05:46:31;100558.56;;;22.84;100.00
22335;BME280;11335;43.848;25.958;2023-06-10T05:49:16;100560.25;;;23.10;100.00
22335;BME280;11335;43.848;25.958;2023-06-10T05:52:02;100564.19;;;23.05;100.00
22335;BME280;11335;43.848;25.958;2023-06-10T05:54:49;100563.66;;;23.38;100.00
22335;BME280;11335;43.848;25.958;2023-06-10T05:57:35;100563.22;;;23.67;100.00
22335;BME280;11335;43.848;25.958;2023-06-10T06:00:21;100566.66;;;23.08;100.00
22335;BME280;11335;43.848;25.958;2023-06-10T06:03:07;100566.63;;;22.45;100.00
22335;BME280;11335;43.848;25.958;2023-06-10T06:05:56;100566.97;;;23.28;100.00
22335;BME280;11335;43.848;25.958;2023-06-10T06:08:42;100566.84;;;23.30;100.00
22335;BME280;11335;43.848;25.958;2023-06-10T06:11:27;100569.13;;;23.96;100.00
22335;BME280;11335;43.848;25.958;2023-06-10T06:14:13;100570.59;;;23.87;100.00
22335;BME280;11335;43.848;25.958;2023-06-10T06:16:59;100574.84;;;22.30;100.00
22335;BME280;11335;43.848;25.958;2023-06-10T06:19:45;100574.22;;;23.39;100.00
22335;BME280;11335;43.848;25.958;2023-06-10T06:22:32;100579.34;;;23.42;100.00
22335;BME280;11335;43.848;25.958;2023-06-10T06:25:18;100575.94;;;23.27;100.00
22335;BME280;11335;43.848;25.958;2023-06-10T06:28:07;100572.50;;;23.38;100.00
22335;BME280;11335;43.848;25.958;2023-06-10T06:30:55;100572.66;;;23.60;100.00
22335;BME280;11335;43.848;25.958;2023-06-10T06:33:41;100570.81;;;23.37;100.00
22335;BME280;11335;43.848;25.958;2023-06-10T06:36:27;100566.88;;;23.90;100.00
22335;BME280;11335;43.848;25.958;2023-06-10T06:39:13;100567.50;;;24.17;100.00
22335;BME280;11335;43.848;25.958;2023-06-10T06:41:59;100563.88;;;24.18;100.00
22335;BME280;11335;43.848;25.958;2023-06-10T06:44:45;100567.25;;;24.20;100.00
22335;BME280;11335;43.848;25.958;2023-06-10T06:47:31;100563.97;;;24.16;100.00
22335;BME280;11335;43.848;25.958;2023-06-10T06:50:17;100573.44;;;24.44;100.00
22335;BME280;11335;43.848;25.958;2023-06-10T06:53:03;100563.16;;;23.80;100.00
22335;BME280;11335;43.848;25.958;2023-06-10T06:55:49;100568.13;;;23.97;100.00
22335;BME280;11335;43.848;25.958;2023-06-10T06:58:35;100570.81;;;24.20;100.00
22335;BME280;11335;43.848;25.958;2023-06-10T07:01:20;100558.28;;;23.74;100.00
22335;BME280;11335;43.848;25.958;2023-06-10T07:04:06;100555.59;;;23.74;100.00
22335;BME280;11335;43.848;25.958;2023-06-10T07:06:52;100562.44;;;24.01;100.00
22335;BME280;11335;43.848;25.958;2023-06-10T07:09:38;100553.97;;;23.71;100.00
22335;BME280;11335;43.848;25.958;2023-06-10T07:12:23;100554.91;;;24.30;100.00
22335;BME280;11335;43.848;25.958;2023-06-10T07:15:09;100559.00;;;24.23;100.00
22335;BME280;11335;43.848;25.958;2023-06-10T07:17:55;100556.50;;;23.62;100.00
22335;BME280;11335;43.848;25.958;2023-06-10T07:20:41;100557.53;;;23.95;100.00
22335;BME280;11335;43.848;25.958;2023-06-10T07:23:27;100556.41;;;24.56;100.00
22335;BME280;11335;43.848;25.958;2023-06-10T07:26:12;100555.25;;;24.82;100.00
22335;BME280;11335;43.848;25.958;2023-06-10T07:28:58;100556.06;;;24.60;100.00
22335;BME280;11335;43.848;25.958;2023-06-10T07:31:44;100561.22;;;24.74;100.00
22335;BME280;11335;43.848;25.958;2023-06-10T07:34:30;100554.41;;;24.81;100.00
22335;BME280;11335;43.848;25.958;2023-06-10T07:37:16;100557.31;;;25.44;100.00
22335;BME280;11335;43.848;25.958;2023-06-10T07:40:01;100553.91;;;25.20;100.00
22335;BME280;11335;43.848;25.958;2023-06-10T07:42:47;100555.13;;;25.16;100.00
22335;BME280;11335;43.848;25.958;2023-06-10T07:45:33;100554.88;;;25.08;100.00
22335;BME280;11335;43.848;25.958;2023-06-10T07:48:19;100563.44;;;25.35;100.00
22335;BME280;11335;43.848;25.958;2023-06-10T07:51:04;100560.88;;;25.56;100.00
22335;BME280;11335;43.848;25.958;2023-06-10T07:53:50;100562.47;;;25.47;99.76
22335;BME280;11335;43.848;25.958;2023-06-10T07:56:36;100563.94;;;25.83;97.38
22335;BME280;11335;43.848;25.958;2023-06-10T07:59:22;100556.97;;;25.27;99.62
22335;BME280;11335;43.848;25.958;2023-06-10T08:02:07;100561.34;;;25.92;97.16
22335;BME280;11335;43.848;25.958;2023-06-10T08:04:53;100563.22;;;25.92;94.03
22335;BME280;11335;43.848;25.958;2023-06-10T08:07:39;100557.94;;;24.93;99.99
22335;BME280;11335;43.848;25.958;2023-06-10T08:10:25;100555.94;;;26.14;92.21
22335;BME280;11335;43.848;25.958;2023-06-10T08:13:11;100554.56;;;26.20;86.83
22335;BME280;11335;43.848;25.958;2023-06-10T08:15:57;100555.53;;;25.87;90.53
22335;BME280;11335;43.848;25.958;2023-06-10T08:18:42;100556.63;;;25.96;93.58
22335;BME280;11335;43.848;25.958;2023-06-10T08:21:28;100547.16;;;26.94;89.65
22335;BME280;11335;43.848;25.958;2023-06-10T08:24:14;100558.56;;;25.94;97.31
22335;BME280;11335;43.848;25.958;2023-06-10T08:27:01;100550.84;;;26.00;97.09
22335;BME280;11335;43.848;25.958;2023-06-10T08:29:47;100549.31;;;26.18;94.38
22335;BME280;11335;43.848;25.958;2023-06-10T08:32:33;100550.81;;;26.11;95.99
22335;BME280;11335;43.848;25.958;2023-06-10T08:35:19;100551.13;;;25.33;100.00
22335;BME280;11335;43.848;25.958;2023-06-10T08:38:04;100547.41;;;25.67;99.29
22335;BME280;11335;43.848;25.958;2023-06-10T08:40:55;100555.28;;;25.48;99.58
22335;BME280;11335;43.848;25.958;2023-06-10T08:43:59;100555.66;;;25.86;97.40
22335;BME280;11335;43.848;25.958;2023-06-10T08:46:48;100555.44;;;25.67;98.87
22335;BME280;11335;43.848;25.958;2023-06-10T08:49:38;100552.19;;;25.52;99.30
22335;BME280;11335;43.848;25.958;2023-06-10T08:52:28;100550.03;;;26.20;94.74
22335;BME280;11335;43.848;25.958;2023-06-10T08:55:18;100548.16;;;26.32;94.71
22335;BME280;11335;43.848;25.958;2023-06-10T08:58:05;100543.13;;;26.79;93.51
22335;BME280;11335;43.848;25.958;2023-06-10T09:00:52;100535.06;;;26.38;94.83
22335;BME280;11335;43.848;25.958;2023-06-10T09:03:38;100543.34;;;26.15;95.20
22335;BME280;11335;43.848;25.958;2023-06-10T09:06:25;100539.22;;;25.68;100.00
22335;BME280;11335;43.848;25.958;2023-06-10T09:09:12;100535.31;;;26.76;93.22
22335;BME280;11335;43.848;25.958;2023-06-10T09:11:59;100537.22;;;26.95;92.12
22335;BME280;11335;43.848;25.958;2023-06-10T09:14:44;100534.50;;;27.15;88.61
22335;BME280;11335;43.848;25.958;2023-06-10T09:17:30;100531.06;;;27.43;87.13
22335;BME280;11335;43.848;25.958;2023-06-10T09:20:16;100530.28;;;26.92;88.96
22335;BME280;11335;43.848;25.958;2023-06-10T09:23:02;100531.38;;;27.10;83.98
22335;BME280;11335;43.848;25.958;2023-06-10T09:25:56;100521.91;;;26.86;82.76
22335;BME280;11335;43.848;25.958;2023-06-10T09:28:47;100520.75;;;27.09;87.30
22335;BME280;11335;43.848;25.958;2023-06-10T09:31:35;100524.88;;;27.62;84.45
22335;BME280;11335;43.848;25.958;2023-06-10T09:34:25;100519.72;;;27.40;88.14
22335;BME280;11335;43.848;25.958;2023-06-10T09:37:11;100517.06;;;27.49;86.60
22335;BME280;11335;43.848;25.958;2023-06-10T09:40:06;100522.59;;;27.67;88.12
22335;BME280;11335;43.848;25.958;2023-06-10T09:42:54;100512.31;;;27.91;85.77
22335;BME280;11335;43.848;25.958;2023-06-10T09:45:40;100509.22;;;27.86;81.10
22335;BME280;11335;43.848;25.958;2023-06-10T09:48:28;100507.16;;;27.79;84.49
22335;BME280;11335;43.848;25.958;2023-06-10T09:51:14;100512.41;;;28.37;80.99
22335;BME280;11335;43.848;25.958;2023-06-10T09:54:03;100518.53;;;28.30;76.68
22335;BME280;11335;43.848;25.958;2023-06-10T09:56:51;100511.16;;;28.32;78.78
22335;BME280;11335;43.848;25.958;2023-06-10T09:59:37;100514.28;;;28.37;75.04
22335;BME280;11335;43.848;25.958;2023-06-10T10:02:23;100506.50;;;28.05;73.88
22335;BME280;11335;43.848;25.958;2023-06-10T10:05:09;100509.72;;;28.37;75.26
22335;BME280;11335;43.848;25.958;2023-06-10T10:07:55;100504.19;;;28.29;73.76
22335;BME280;11335;43.848;25.958;2023-06-10T10:10:41;100500.13;;;28.81;70.50
22335;BME280;11335;43.848;25.958;2023-06-10T10:13:27;100497.09;;;28.93;65.08
22335;BME280;11335;43.848;25.958;2023-06-10T10:16:19;100498.34;;;29.08;63.94
22335;BME280;11335;43.848;25.958;2023-06-10T10:19:10;100496.00;;;28.86;63.50
22335;BME280;11335;43.848;25.958;2023-06-10T10:22:04;100499.41;;;28.79;59.54
22335;BME280;11335;43.848;25.958;2023-06-10T10:24:54;100494.47;;;29.11;61.51
22335;BME280;11335;43.848;25.958;2023-06-10T10:27:51;100498.03;;;29.11;63.61
22335;BME280;11335;43.848;25.958;2023-06-10T10:30:42;100492.44;;;28.86;62.79
22335;BME280;11335;43.848;25.958;2023-06-10T10:33:39;100489.28;;;29.27;61.85
22335;BME280;11335;43.848;25.958;2023-06-10T10:36:27;100485.06;;;29.42;61.28
22335;BME280;11335;43.848;25.958;2023-06-10T10:39:13;100475.56;;;29.38;60.15
22335;BME280;11335;43.848;25.958;2023-06-10T10:42:00;100469.53;;;28.99;59.38
22335;BME280;11335;43.848;25.958;2023-06-10T10:44:49;100471.97;;;29.20;60.35
22335;BME280;11335;43.848;25.958;2023-06-10T10:47:36;100463.41;;;29.86;58.68
22335;BME280;11335;43.848;25.958;2023-06-10T10:50:23;100459.16;;;30.01;56.70
22335;BME280;11335;43.848;25.958;2023-06-10T10:53:09;100460.19;;;29.65;55.90
22335;BME280;11335;43.848;25.958;2023-06-10T10:56:15;100458.28;;;30.36;54.27
22335;BME280;11335;43.848;25.958;2023-06-10T10:59:04;100467.28;;;29.49;54.33
22335;BME280;11335;43.848;25.958;2023-06-10T11:01:50;100467.03;;;29.42;54.83
22335;BME280;11335;43.848;25.958;2023-06-10T11:04:36;100459.03;;;29.85;52.40
22335;BME280;11335;43.848;25.958;2023-06-10T11:07:24;100453.16;;;30.07;51.66
22335;BME280;11335;43.848;25.958;2023-06-10T11:10:11;100450.94;;;29.85;47.81
22335;BME280;11335;43.848;25.958;2023-06-10T11:12:58;100454.13;;;29.81;45.95
22335;BME280;11335;43.848;25.958;2023-06-10T11:15:45;100455.66;;;29.83;44.67
22335;BME280;11335;43.848;25.958;2023-06-10T11:18:38;100447.91;;;30.06;39.76
22335;BME280;11335;43.848;25.958;2023-06-10T11:21:25;100434.53;;;30.22;39.29
22335;BME280;11335;43.848;25.958;2023-06-10T11:24:12;100437.47;;;30.11;36.72
22335;BME280;11335;43.848;25.958;2023-06-10T11:27:18;100428.59;;;30.18;37.56
22335;BME280;11335;43.848;25.958;2023-06-10T11:32:51;100433.34;;;29.64;37.48
22335;BME280;11335;43.848;25.958;2023-06-10T11:35:38;100422.59;;;30.32;37.66
22335;BME280;11335;43.848;25.958;2023-06-10T11:38:26;100422.56;;;30.75;36.96
22335;BME280;11335;43.848;25.958;2023-06-10T11:41:13;100413.75;;;30.81;38.72
22335;BME280;11335;43.848;25.958;2023-06-10T11:44:04;100409.88;;;30.25;37.66
22335;BME280;11335;43.848;25.958;2023-06-10T11:46:52;100410.91;;;30.57;36.83
22335;BME280;11335;43.848;25.958;2023-06-10T11:49:38;100406.63;;;30.47;36.53
22335;BME280;11335;43.848;25.958;2023-06-10T11:52:28;100401.06;;;31.31;36.40
22335;BME280;11335;43.848;25.958;2023-06-10T11:55:14;100403.69;;;32.05;35.32
22335;BME280;11335;43.848;25.958;2023-06-10T11:57:59;100390.84;;;31.91;36.47
22335;BME280;11335;43.848;25.958;2023-06-10T12:00:52;100395.72;;;31.88;34.18
22335;BME280;11335;43.848;25.958;2023-06-10T12:03:46;100397.69;;;32.50;35.25
22335;BME280;11335;43.848;25.958;2023-06-10T12:06:46;100399.94;;;31.74;34.52
22335;BME280;11335;43.848;25.958;2023-06-10T12:09:32;100403.03;;;31.79;34.31
22335;BME280;11335;43.848;25.958;2023-06-10T12:12:18;100392.47;;;31.52;35.22
22335;BME280;11335;43.848;25.958;2023-06-10T12:15:05;100386.22;;;32.00;34.83
22335;BME280;11335;43.848;25.958;2023-06-10T12:17:51;100388.84;;;32.56;35.33
22335;BME280;11335;43.848;25.958;2023-06-10T12:20:37;100393.38;;;31.85;35.62
22335;BME280;11335;43.848;25.958;2023-06-10T12:23:23;100389.59;;;30.88;36.92
22335;BME280;11335;43.848;25.958;2023-06-10T12:26:09;100379.00;;;30.27;37.55
22335;BME280;11335;43.848;25.958;2023-06-10T12:28:55;100378.19;;;31.10;36.58
22335;BME280;11335;43.848;25.958;2023-06-10T12:32:01;100374.69;;;30.50;36.13
22335;BME280;11335;43.848;25.958;2023-06-10T12:34:48;100376.84;;;30.39;36.53
22335;BME280;11335;43.848;25.958;2023-06-10T12:37:34;100374.41;;;30.61;37.30
22335;BME280;11335;43.848;25.958;2023-06-10T12:40:26;100368.38;;;30.67;37.04
22335;BME280;11335;43.848;25.958;2023-06-10T12:43:12;100374.41;;;30.95;36.79
22335;BME280;11335;43.848;25.958;2023-06-10T12:46:11;100367.16;;;30.62;37.45
22335;BME280;11335;43.848;25.958;2023-06-10T12:48:58;100364.38;;;30.71;37.64
22335;BME280;11335;43.848;25.958;2023-06-10T12:51:43;100359.25;;;31.18;37.29
22335;BME280;11335;43.848;25.958;2023-06-10T12:54:30;100354.72;;;31.34;35.93
22335;BME280;11335;43.848;25.958;2023-06-10T12:57:15;100354.88;;;31.33;37.09
22335;BME280;11335;43.848;25.958;2023-06-10T13:00:02;100352.28;;;31.15;37.85
22335;BME280;11335;43.848;25.958;2023-06-10T13:02:49;100350.16;;;31.51;37.15
22335;BME280;11335;43.848;25.958;2023-06-10T13:05:36;100350.47;;;31.24;37.92
22335;BME280;11335;43.848;25.958;2023-06-10T13:08:24;100352.63;;;31.12;37.83
22335;BME280;11335;43.848;25.958;2023-06-10T13:11:10;100350.94;;;31.19;38.07
22335;BME280;11335;43.848;25.958;2023-06-10T13:13:56;100351.84;;;31.68;37.39
22335;BME280;11335;43.848;25.958;2023-06-10T13:16:41;100350.84;;;30.87;38.46
22335;BME280;11335;43.848;25.958;2023-06-10T13:19:30;100343.06;;;31.34;38.31
22335;BME280;11335;43.848;25.958;2023-06-10T13:22:15;100345.94;;;31.97;37.94
22335;BME280;11335;43.848;25.958;2023-06-10T13:25:05;100332.38;;;31.24;38.43
22335;BME280;11335;43.848;25.958;2023-06-10T13:27:54;100335.69;;;31.10;38.56
22335;BME280;11335;43.848;25.958;2023-06-10T13:30:40;100337.81;;;31.65;38.48
22335;BME280;11335;43.848;25.958;2023-06-10T13:33:26;100344.91;;;30.76;39.34
22335;BME280;11335;43.848;25.958;2023-06-10T13:36:12;100332.03;;;31.35;38.35
22335;BME280;11335;43.848;25.958;2023-06-10T13:38:58;100327.31;;;31.78;38.71
22335;BME280;11335;43.848;25.958;2023-06-10T13:41:43;100325.19;;;32.20;37.31
22335;BME280;11335;43.848;25.958;2023-06-10T13:44:29;100325.91;;;32.14;37.41
22335;BME280;11335;43.848;25.958;2023-06-10T13:47:18;100322.38;;;31.57;38.04
22335;BME280;11335;43.848;25.958;2023-06-10T13:50:05;100321.91;;;31.86;37.28
22335;BME280;11335;43.848;25.958;2023-06-10T13:52:51;100313.78;;;31.38;38.74
22335;BME280;11335;43.848;25.958;2023-06-10T13:55:37;100306.28;;;31.64;37.53
22335;BME280;11335;43.848;25.958;2023-06-10T13:58:22;100312.69;;;31.14;38.05
22335;BME280;11335;43.848;25.958;2023-06-10T14:01:08;100305.47;;;31.47;38.20
22335;BME280;11335;43.848;25.958;2023-06-10T14:03:54;100304.41;;;31.16;38.60
22335;BME280;11335;43.848;25.958;2023-06-10T14:06:40;100296.00;;;31.27;38.83
22335;BME280;11335;43.848;25.958;2023-06-10T14:09:26;100290.41;;;31.37;38.51
22335;BME280;11335;43.848;25.958;2023-06-10T14:12:12;100289.38;;;31.21;37.96
22335;BME280;11335;43.848;25.958;2023-06-10T14:14:58;100286.84;;;31.28;38.76
22335;BME280;11335;43.848;25.958;2023-06-10T14:17:43;100291.72;;;31.16;37.55
22335;BME280;11335;43.848;25.958;2023-06-10T14:20:29;100290.38;;;31.12;38.60
22335;BME280;11335;43.848;25.958;2023-06-10T14:23:16;100289.78;;;30.77;38.35
22335;BME280;11335;43.848;25.958;2023-06-10T14:26:02;100295.81;;;30.63;38.60